Time;durP1;ratioP1;P1;durP2;ratioP2;P2;SDS_P1;SDS_P2;PMS_P1;PMS_P2;Temp;Humidity;BMP_temperature;BMP_pressure;BME280_temperature;BME280_humidity;BME280_pressure;Samples;Min_cycle;Max_cycle;Signal;HPM_P1;HPM_P2
2024/04/13 00:01:52;;;;;;;18.60;2.22;;;33.00;27.60;;;;;;5497330;26;20068;-62
2024/04/13 00:04:18;;;;;;;11.85;2.50;;;32.90;27.40;;;;;;5508618;26;20526;-60
2024/04/13 00:06:45;;;;;;;18.13;2.75;;;33.00;27.60;;;;;;5506440;26;20093;-64
2024/04/13 00:09:11;;;;;;;20.98;2.70;;;33.00;28.20;;;;;;5507784;26;20085;-62
2024/04/13 00:11:37;;;;;;;17.33;2.65;;;33.10;28.20;;;;;;5470156;26;20065;-62
2024/04/13 00:14:04;;;;;;;21.15;3.03;;;33.00;28.30;;;;;;5510945;26;20557;-62
2024/04/13 00:16:30;;;;;;;23.25;3.00;;;32.90;27.90;;;;;;5502054;26;20068;-64
2024/04/13 00:18:58;;;;;;;16.60;2.63;;;32.80;27.90;;;;;;5517629;26;20059;-65
2024/04/13 00:21:41;;;;;;;23.33;2.63;;;32.80;27.80;;;;;;5471369;25;1859987;-61
2024/04/13 00:24:09;;;;;;;15.98;2.70;;;32.80;27.80;;;;;;5496471;25;20088;-64
2024/04/13 00:26:36;;;;;;;20.73;2.65;;;32.70;27.20;;;;;;5503069;25;20091;-63
2024/04/13 00:29:07;;;;;;;19.88;2.85;;;32.60;28.00;;;;;;5499955;25;20151;-64
2024/04/13 00:31:34;;;;;;;14.57;2.20;;;32.60;28.70;;;;;;5497361;25;20120;-64
2024/04/13 00:34:02;;;;;;;33.47;3.65;;;32.40;29.20;;;;;;5500076;25;20194;-64
2024/04/13 00:36:29;;;;;;;22.65;3.40;;;32.50;29.60;;;;;;5497521;25;20061;-63
2024/04/13 00:38:55;;;;;;;27.92;3.45;;;32.60;30.00;;;;;;5500637;25;20077;-64
2024/04/13 00:41:22;;;;;;;17.65;2.58;;;32.40;30.60;;;;;;5499081;25;20071;-64
2024/04/13 00:43:48;;;;;;;23.23;2.78;;;32.20;31.30;;;;;;5502581;25;20082;-62
2024/04/13 00:46:23;;;;;;;15.02;2.85;;;32.00;31.80;;;;;;5497182;25;20092;-62
2024/04/13 00:48:51;;;;;;;18.60;3.33;;;31.90;32.20;;;;;;5500119;25;20152;-63
2024/04/13 00:51:18;;;;;;;21.80;2.60;;;31.90;33.20;;;;;;5468051;25;20195;-65
2024/04/13 00:53:45;;;;;;;21.52;3.53;;;31.90;32.40;;;;;;5500172;25;20139;-61
2024/04/13 00:56:12;;;;;;;15.80;3.00;;;31.80;32.40;;;;;;5494589;25;20053;-61
2024/04/13 00:58:40;;;;;;;24.10;7.30;;;31.50;32.80;;;;;;5495784;25;20087;-61
2024/04/13 01:01:10;;;;;;;16.73;2.78;;;31.50;32.20;;;;;;5495799;25;20086;-60
2024/04/13 01:03:38;;;;;;;24.10;3.05;;;31.50;32.20;;;;;;5501287;25;20513;-60
2024/04/13 01:06:08;;;;;;;12.25;2.90;;;31.40;32.70;;;;;;5501778;25;20088;-61
2024/04/13 01:08:34;;;;;;;20.42;2.83;;;31.30;33.10;;;;;;5497519;25;20159;-62
2024/04/13 01:11:01;;;;;;;17.35;2.63;;;31.20;33.50;;;;;;5499852;25;20070;-62
2024/04/13 01:13:28;;;;;;;16.85;3.53;;;31.30;33.80;;;;;;5506907;25;20063;-62
2024/04/13 01:15:54;;;;;;;19.83;3.28;;;31.40;34.00;;;;;;5469471;25;20063;-59
2024/04/13 01:18:20;;;;;;;23.92;2.65;;;31.40;34.80;;;;;;5499764;25;20061;-61
2024/04/13 01:20:48;;;;;;;15.65;3.10;;;31.20;36.00;;;;;;5499019;25;20402;-62
2024/04/13 01:23:16;;;;;;;29.55;3.47;;;31.20;35.90;;;;;;5500074;25;20059;-61
2024/04/13 01:25:42;;;;;;;24.63;3.55;;;31.10;36.00;;;;;;5497976;25;20064;-61
2024/04/13 01:28:10;;;;;;;18.42;3.40;;;31.00;36.20;;;;;;5514251;25;20095;-61
2024/04/13 01:30:37;;;;;;;18.13;3.22;;;30.80;36.60;;;;;;5501827;25;20098;-61
2024/04/13 01:33:04;;;;;;;20.92;3.38;;;30.50;36.40;;;;;;5426863;26;20095;-60
2024/04/13 01:35:30;;;;;;;21.52;3.83;;;30.40;37.60;;;;;;5450919;26;20519;-59
2024/04/13 01:37:57;;;;;;;22.52;3.70;;;30.20;38.00;;;;;;5505429;26;21900;-60
2024/04/13 01:40:24;;;;;;;18.58;3.30;;;30.10;37.90;;;;;;5485054;26;20062;-59
2024/04/13 01:42:51;;;;;;;24.92;3.00;;;30.00;37.50;;;;;;5482348;26;20067;-59
2024/04/13 01:45:17;;;;;;;12.82;2.70;;;29.80;36.60;;;;;;5453027;26;20085;-59
2024/04/13 01:47:44;;;;;;;17.20;2.97;;;29.40;35.50;;;;;;5484327;26;20062;-59
2024/04/13 01:50:12;;;;;;;18.88;3.60;;;29.20;36.00;;;;;;5485516;26;20152;-60
2024/04/13 01:52:39;;;;;;;11.20;2.40;;;29.00;36.80;;;;;;5459763;26;20141;-60
2024/04/13 01:55:06;;;;;;;13.77;3.22;;;29.00;35.10;;;;;;5484495;26;20078;-61
2024/04/13 01:57:32;;;;;;;15.65;2.60;;;28.80;35.00;;;;;;5485369;26;20066;-61
2024/04/13 01:59:59;;;;;;;14.70;2.78;;;28.70;35.00;;;;;;5479718;26;20150;-59
2024/04/13 02:02:25;;;;;;;16.15;3.00;;;28.60;34.90;;;;;;5474845;26;20084;-60
2024/04/13 02:04:51;;;;;;;13.10;2.80;;;28.50;35.80;;;;;;5481296;26;20066;-61
2024/04/13 02:07:18;;;;;;;16.95;2.65;;;28.40;35.40;;;;;;5484435;26;20066;-59
2024/04/13 02:09:44;;;;;;;14.23;2.35;;;28.20;35.20;;;;;;5483341;26;20066;-60
2024/04/13 02:12:11;;;;;;;12.30;3.25;;;28.00;34.80;;;;;;5482052;26;20113;-60
2024/04/13 02:14:38;;;;;;;13.82;3.05;;;27.80;34.60;;;;;;5486320;26;20066;-62
2024/04/13 02:17:05;;;;;;;14.57;2.90;;;27.70;34.50;;;;;;5479974;26;20496;-60
2024/04/13 02:19:32;;;;;;;14.90;3.30;;;27.60;34.10;;;;;;5484029;26;20066;-60
2024/04/13 02:22:00;;;;;;;21.33;3.40;;;27.50;34.20;;;;;;5481708;26;20100;-60
2024/04/13 02:24:26;;;;;;;15.48;2.63;;;27.40;33.90;;;;;;5482010;26;20104;-60
2024/04/13 02:26:52;;;;;;;6.40;2.58;;;27.40;32.40;;;;;;5481933;26;20153;-60
2024/04/13 02:29:19;;;;;;;14.52;2.90;;;27.40;32.20;;;;;;5482451;26;20157;-60
2024/04/13 02:31:46;;;;;;;16.13;3.13;;;27.30;32.00;;;;;;5474424;26;20062;-60
2024/04/13 02:34:12;;;;;;;8.05;3.00;;;27.20;31.90;;;;;;5486344;26;20542;-59
2024/04/13 02:36:39;;;;;;;10.05;3.00;;;27.10;32.40;;;;;;5481524;26;20065;-59
2024/04/13 02:39:08;;;;;;;9.73;2.47;;;27.00;32.60;;;;;;5482304;26;20066;-60
2024/04/13 02:41:34;;;;;;;8.07;2.60;;;27.00;33.30;;;;;;5481026;26;20097;-59
2024/04/13 02:44:01;;;;;;;11.55;2.58;;;26.90;33.10;;;;;;5483348;26;20070;-59
2024/04/13 02:46:27;;;;;;;14.40;2.92;;;26.80;33.40;;;;;;5483317;26;20508;-59
2024/04/13 02:48:54;;;;;;;11.55;3.10;;;26.70;33.70;;;;;;5482032;26;20065;-59
2024/04/13 02:51:20;;;;;;;10.25;3.10;;;26.70;34.30;;;;;;5448912;26;20413;-59
2024/04/13 02:53:47;;;;;;;12.32;3.17;;;26.60;34.10;;;;;;5484235;26;20088;-60
2024/04/13 02:56:13;;;;;;;15.57;2.83;;;26.50;33.60;;;;;;5480526;26;20092;-59
2024/04/13 02:58:40;;;;;;;10.55;3.40;;;26.40;33.70;;;;;;5481512;26;20062;-59
2024/04/13 03:01:07;;;;;;;15.32;2.85;;;26.30;34.10;;;;;;5482011;26;20149;-60
2024/04/13 03:03:33;;;;;;;10.73;3.05;;;26.30;34.10;;;;;;5483004;26;20512;-59
2024/04/13 03:06:03;;;;;;;11.88;3.30;;;26.20;34.80;;;;;;5479170;26;20159;-59
2024/04/13 03:08:31;;;;;;;13.00;2.90;;;26.10;35.10;;;;;;5451823;26;20084;-59
2024/04/13 03:10:59;;;;;;;15.38;2.63;;;26.10;35.80;;;;;;5481517;26;20066;-60
2024/04/13 03:13:26;;;;;;;10.80;2.80;;;26.00;36.00;;;;;;5493166;26;20061;-59
2024/04/13 03:16:03;;;;;;;12.85;3.80;;;25.90;35.50;;;;;;5482404;26;20082;-60
2024/04/13 03:18:33;;;;;;;10.77;4.22;;;25.90;36.00;;;;;;5480956;26;20061;-59
2024/04/13 03:21:00;;;;;;;7.93;3.47;;;25.80;36.10;;;;;;5479388;26;20066;-60
2024/04/13 03:23:30;;;;;;;13.95;3.17;;;25.80;36.90;;;;;;5481810;26;20188;-60
2024/04/13 03:25:57;;;;;;;16.63;3.13;;;25.70;36.60;;;;;;5482224;26;20066;-60
2024/04/13 03:28:36;;;;;;;16.55;4.85;;;25.60;36.40;;;;;;5481742;26;20070;-60
2024/04/13 03:31:04;;;;;;;11.88;3.20;;;25.50;36.90;;;;;;5480147;26;20562;-61
2024/04/13 03:33:31;;;;;;;13.38;2.80;;;25.50;36.60;;;;;;5483647;26;20096;-60
2024/04/13 03:36:04;;;;;;;12.13;3.25;;;25.50;36.40;;;;;;5477426;26;20146;-60
2024/04/13 03:38:30;;;;;;;14.10;3.40;;;25.40;37.30;;;;;;5450553;26;20153;-62
2024/04/13 03:41:07;;;;;;;17.55;3.33;;;25.20;37.40;;;;;;5483012;26;20157;-59
2024/04/13 03:43:33;;;;;;;;;;;25.20;38.00;;;;;;5479727;26;20151;-60
2024/04/13 03:46:00;;;;;;;13.45;3.15;;;25.10;38.20;;;;;;5480930;26;19995;-60
2024/04/13 03:48:28;;;;;;;13.25;3.10;;;25.00;38.40;;;;;;5479402;26;20437;-61
2024/04/13 03:50:55;;;;;;;14.82;3.42;;;25.00;38.80;;;;;;5480079;26;20372;-60
2024/04/13 03:53:22;;;;;;;25.85;15.65;;;24.90;39.40;;;;;;5479287;26;20094;-60
2024/04/13 03:55:48;;;;;;;31.92;17.35;;;24.90;40.00;;;;;;5479604;26;20080;-60
2024/04/13 03:58:15;;;;;;;27.10;16.35;;;24.70;40.10;;;;;;5479854;26;20517;-63
2024/04/13 04:00:41;;;;;;;18.20;3.47;;;24.60;41.20;;;;;;5485855;26;20080;-60
2024/04/13 04:03:08;;;;;;;13.00;2.70;;;24.40;41.90;;;;;;5478498;26;20123;-61
2024/04/13 04:05:34;;;;;;;13.35;2.97;;;24.30;42.10;;;;;;5478718;26;20062;-60
2024/04/13 04:08:01;;;;;;;10.13;2.67;;;24.20;41.70;;;;;;5478211;26;20333;-59
2024/04/13 04:10:27;;;;;;;18.70;2.80;;;24.10;42.00;;;;;;5477238;26;20106;-61
2024/04/13 04:12:54;;;;;;;26.10;3.75;;;24.00;42.70;;;;;;5476975;26;20066;-60
2024/04/13 04:15:20;;;;;;;20.20;3.72;;;24.00;42.70;;;;;;5481244;26;20110;-60
2024/04/13 04:17:47;;;;;;;26.77;4.03;;;24.00;42.90;;;;;;5481380;26;20102;-60
2024/04/13 04:20:13;;;;;;;20.42;3.10;;;23.90;42.90;;;;;;5479767;26;20066;-59
2024/04/13 04:22:40;;;;;;;21.92;4.60;;;23.80;42.80;;;;;;5449085;26;20512;-61
2024/04/13 04:25:07;;;;;;;16.55;3.50;;;23.70;42.40;;;;;;5479301;26;20093;-62
2024/04/13 04:27:34;;;;;;;23.92;5.20;;;23.70;42.10;;;;;;5480372;26;20169;-60
2024/04/13 04:30:00;;;;;;;20.25;3.10;;;23.60;41.50;;;;;;5478985;26;20151;-61
2024/04/13 04:32:26;;;;;;;23.52;3.33;;;23.60;41.00;;;;;;5475869;26;20093;-60
2024/04/13 04:34:53;;;;;;;25.20;5.28;;;23.40;40.90;;;;;;5477091;26;20093;-62
2024/04/13 04:37:19;;;;;;;16.13;3.40;;;23.40;41.00;;;;;;5476645;26;20090;-60
2024/04/13 04:39:46;;;;;;;21.10;3.50;;;23.20;41.60;;;;;;5474562;26;20059;-61
2024/04/13 04:42:12;;;;;;;23.92;3.80;;;23.40;41.80;;;;;;5443972;26;20075;-64
2024/04/13 04:44:39;;;;;;;34.22;4.40;;;24.30;40.20;;;;;;5479612;26;20062;-66
2024/04/13 04:47:05;;;;;;;23.38;3.45;;;24.80;38.00;;;;;;5481561;26;20407;-65
2024/04/13 04:49:33;;;;;;;17.48;3.95;;;24.90;37.30;;;;;;5444812;26;20085;-64
2024/04/13 04:52:00;;;;;;;17.90;3.25;;;25.00;36.50;;;;;;5477806;26;20071;-64
2024/04/13 04:54:26;;;;;;;21.48;4.00;;;24.90;36.40;;;;;;5480490;26;20543;-66
2024/04/13 04:56:53;;;;;;;18.30;3.60;;;24.90;35.80;;;;;;5477301;26;20109;-64
2024/04/13 04:59:19;;;;;;;22.20;3.60;;;24.80;36.40;;;;;;5478831;26;20094;-63
2024/04/13 05:01:46;;;;;;;20.15;3.53;;;24.90;36.20;;;;;;5477094;26;20062;-62
2024/04/13 05:04:12;;;;;;;14.82;3.80;;;24.90;36.70;;;;;;5479162;26;20205;-62
2024/04/13 05:06:39;;;;;;;21.92;3.10;;;24.80;36.10;;;;;;5447153;26;20086;-62
2024/04/13 05:09:09;;;;;;;20.30;3.45;;;24.60;36.40;;;;;;5479634;26;20143;-64
2024/04/13 05:11:36;;;;;;;19.02;5.18;;;24.50;36.30;;;;;;5480522;26;20062;-64
2024/04/13 05:14:02;;;;;;;23.55;5.80;;;24.60;36.50;;;;;;5452058;26;20080;-65
2024/04/13 05:16:29;;;;;;;22.27;5.03;;;24.20;36.60;;;;;;5483021;26;20063;-63
2024/04/13 05:18:55;;;;;;;19.65;5.68;;;24.10;36.60;;;;;;5479968;26;20070;-63
2024/04/13 05:21:22;;;;;;;25.83;6.80;;;24.00;37.00;;;;;;5479138;26;20062;-63
2024/04/13 05:23:48;;;;;;;16.48;5.35;;;23.90;36.80;;;;;;5478327;26;20062;-62
2024/04/13 05:26:15;;;;;;;14.57;4.75;;;24.00;36.90;;;;;;5483175;26;20058;-62
2024/04/13 05:28:42;;;;;;;22.75;4.28;;;23.90;36.80;;;;;;5479221;26;20063;-62
2024/04/13 05:31:09;;;;;;;14.52;3.30;;;23.60;37.00;;;;;;5482124;26;20457;-61
2024/04/13 05:33:36;;;;;;;17.98;3.50;;;23.40;37.40;;;;;;5479756;26;20083;-65
2024/04/13 05:36:03;;;;;;;22.17;3.20;;;23.40;37.60;;;;;;5452209;26;20139;-63
2024/04/13 05:38:32;;;;;;;17.15;3.05;;;23.50;37.50;;;;;;5478399;26;20056;-63
2024/04/13 05:40:59;;;;;;;16.63;3.22;;;23.70;36.60;;;;;;5484553;26;20065;-63
2024/04/13 05:43:26;;;;;;;16.90;7.60;;;23.40;36.60;;;;;;5484268;26;20102;-63
2024/04/13 05:45:52;;;;;;;20.58;3.90;;;23.40;36.80;;;;;;5482203;26;20188;-64
2024/04/13 05:48:20;;;;;;;16.05;3.85;;;23.50;36.90;;;;;;5485157;26;20158;-62
2024/04/13 05:50:53;;;;;;;16.73;3.55;;;23.20;37.60;;;;;;5472833;26;20063;-65
2024/04/13 05:53:20;;;;;;;18.25;3.05;;;23.10;38.60;;;;;;5485034;26;20116;-62
2024/04/13 05:55:47;;;;;;;12.93;2.97;;;23.10;39.20;;;;;;5479662;26;20066;-63
2024/04/13 05:58:14;;;;;;;15.50;3.17;;;23.20;39.70;;;;;;5485183;26;20093;-61
2024/04/13 06:00:42;;;;;;;14.32;2.88;;;23.00;40.50;;;;;;5483714;26;20062;-65
2024/04/13 06:03:08;;;;;;;11.77;2.60;;;23.20;40.80;;;;;;5483616;26;20071;-64
2024/04/13 06:05:35;;;;;;;12.75;2.92;;;23.10;41.40;;;;;;5485797;26;20525;-64
2024/04/13 06:08:02;;;;;;;10.30;2.95;;;23.20;41.20;;;;;;5487059;26;20065;-61
2024/04/13 06:10:28;;;;;;;16.10;2.80;;;23.10;41.70;;;;;;5449696;26;20063;-62
2024/04/13 06:12:55;;;;;;;23.67;7.15;;;23.20;41.60;;;;;;5490871;26;20164;-61
2024/04/13 06:15:22;;;;;;;14.57;6.60;;;23.10;41.50;;;;;;5480268;26;20449;-62
2024/04/13 06:17:48;;;;;;;14.73;5.82;;;23.00;42.40;;;;;;5483204;26;20066;-61
2024/04/13 06:20:15;;;;;;;25.10;8.85;;;23.00;42.40;;;;;;5484557;26;20147;-62
2024/04/13 06:22:41;;;;;;;18.80;7.43;;;23.00;42.50;;;;;;5477990;26;21057;-62
2024/04/13 06:25:10;;;;;;;17.05;5.00;;;22.90;42.60;;;;;;5482823;26;20535;-63
2024/04/13 06:27:39;;;;;;;13.15;4.95;;;22.80;42.40;;;;;;5451571;26;20426;-61
2024/04/13 06:30:07;;;;;;;17.17;5.10;;;22.80;42.80;;;;;;5479104;26;20063;-61
2024/04/13 06:32:33;;;;;;;11.18;3.95;;;22.70;43.80;;;;;;5480751;26;20063;-61
2024/04/13 06:35:00;;;;;;;18.20;4.07;;;22.60;43.60;;;;;;5483956;26;20090;-62
2024/04/13 06:37:26;;;;;;;15.35;4.10;;;22.60;43.30;;;;;;5480972;26;20067;-61
2024/04/13 06:39:53;;;;;;;18.88;4.05;;;22.60;43.60;;;;;;5482310;26;20566;-62
2024/04/13 06:42:19;;;;;;;18.80;4.30;;;22.50;43.40;;;;;;5483490;26;20508;-62
2024/04/13 06:44:45;;;;;;;17.80;3.58;;;22.30;44.30;;;;;;5449137;26;20078;-61
2024/04/13 06:47:12;;;;;;;16.70;3.50;;;22.30;44.60;;;;;;5483054;26;20106;-62
2024/04/13 06:49:38;;;;;;;17.42;3.58;;;22.20;44.70;;;;;;5484132;26;20074;-62
2024/04/13 06:52:05;;;;;;;31.27;4.25;;;22.10;44.40;;;;;;5482757;26;20393;-63
2024/04/13 06:54:31;;;;;;;18.02;3.63;;;21.90;45.20;;;;;;5484827;26;20070;-62
2024/04/13 06:56:58;;;;;;;14.00;3.35;;;22.00;44.90;;;;;;5487303;26;20102;-62
2024/04/13 06:59:24;;;;;;;21.48;3.78;;;22.00;44.70;;;;;;5480965;26;20086;-61
2024/04/13 07:01:51;;;;;;;12.77;3.97;;;22.00;45.20;;;;;;5482803;26;20067;-61
2024/04/13 07:04:17;;;;;;;15.23;3.97;;;22.00;45.20;;;;;;5482904;26;20067;-62
2024/04/13 07:06:44;;;;;;;14.60;3.58;;;21.90;44.80;;;;;;5483090;26;20078;-62
2024/04/13 07:09:11;;;;;;;16.77;3.88;;;21.90;45.50;;;;;;5481991;26;20217;-61
2024/04/13 07:11:38;;;;;;;16.60;3.53;;;22.00;45.50;;;;;;5483155;26;20074;-63
2024/04/13 07:14:04;;;;;;;18.88;3.45;;;22.00;45.00;;;;;;5484186;26;20063;-63
2024/04/13 07:16:32;;;;;;;18.67;3.75;;;21.90;45.00;;;;;;5484468;26;20067;-62
2024/04/13 07:18:59;;;;;;;25.67;5.32;;;21.80;44.60;;;;;;5483337;26;20063;-62
2024/04/13 07:21:25;;;;;;;18.63;4.45;;;21.60;45.10;;;;;;5480947;26;20098;-62
2024/04/13 07:23:52;;;;;;;15.80;4.57;;;21.60;44.90;;;;;;5450966;26;20487;-62
2024/04/13 07:26:18;;;;;;;22.13;4.75;;;21.50;44.50;;;;;;5483661;26;20415;-62
2024/04/13 07:28:46;;;;;;;15.60;4.30;;;21.40;44.50;;;;;;5449664;26;20665;-62
2024/04/13 07:31:12;;;;;;;13.85;3.40;;;21.30;44.70;;;;;;5483418;26;20063;-61
2024/04/13 07:33:39;;;;;;;18.05;3.20;;;21.20;44.90;;;;;;5481868;26;20066;-61
2024/04/13 07:36:05;;;;;;;11.73;3.25;;;21.20;44.50;;;;;;5481886;26;20155;-61
2024/04/13 07:38:33;;;;;;;21.50;3.22;;;21.30;44.20;;;;;;5483465;26;20101;-61
2024/04/13 07:40:59;;;;;;;14.90;3.80;;;21.30;43.80;;;;;;5482633;26;20541;-61
2024/04/13 07:43:26;;;;;;;21.25;4.82;;;21.20;43.60;;;;;;5483735;26;20067;-60
2024/04/13 07:45:52;;;;;;;12.95;5.68;;;21.30;43.30;;;;;;5481705;26;20102;-60
2024/04/13 07:48:19;;;;;;;14.45;5.50;;;21.30;43.00;;;;;;5449864;26;20058;-60
2024/04/13 07:50:45;;;;;;;19.73;5.40;;;21.20;42.80;;;;;;5483541;26;20571;-61
2024/04/13 07:53:12;;;;;;;18.05;3.70;;;21.40;42.20;;;;;;5449847;26;20066;-61
2024/04/13 07:55:38;;;;;;;19.60;3.90;;;21.40;41.30;;;;;;5484450;26;20071;-62
2024/04/13 07:58:05;;;;;;;17.83;3.85;;;21.30;41.40;;;;;;5479364;26;20114;-61
2024/04/13 08:00:31;;;;;;;11.77;3.30;;;21.20;41.60;;;;;;5482711;26;20089;-61
2024/04/13 08:02:57;;;;;;;15.57;3.55;;;21.20;43.30;;;;;;5449908;26;20429;-62
2024/04/13 08:05:24;;;;;;;14.27;3.03;;;21.20;45.60;;;;;;5480883;26;20093;-62
2024/04/13 08:07:51;;;;;;;16.05;4.78;;;21.20;47.70;;;;;;5482785;26;20066;-62
2024/04/13 08:10:19;;;;;;;14.10;3.88;;;21.20;50.50;;;;;;5481020;26;20067;-61
2024/04/13 08:12:46;;;;;;;15.23;4.05;;;21.20;52.10;;;;;;5482263;26;20097;-64
2024/04/13 08:15:13;;;;;;;17.05;3.97;;;21.10;54.00;;;;;;5482263;26;20093;-62
2024/04/13 08:17:39;;;;;;;22.08;5.10;;;21.00;55.70;;;;;;5447152;26;20157;-62
2024/04/13 08:20:09;;;;;;;23.40;5.28;;;21.10;56.50;;;;;;5456603;26;20089;-61
2024/04/13 08:22:36;;;;;;;19.52;5.22;;;21.00;57.30;;;;;;5479434;26;20092;-62
2024/04/13 08:25:02;;;;;;;17.33;4.15;;;20.90;58.40;;;;;;5449216;26;20071;-62
2024/04/13 08:27:31;;;;;;;27.27;4.70;;;20.90;58.90;;;;;;5482115;26;20091;-61
2024/04/13 08:29:58;;;;;;;17.50;4.85;;;20.80;59.60;;;;;;5482051;26;20071;-62
2024/04/13 08:32:24;;;;;;;26.17;5.30;;;20.80;59.70;;;;;;5481277;26;20066;-62
2024/04/13 08:34:54;;;;;;;33.42;5.38;;;20.80;59.60;;;;;;5481349;26;20511;-62
2024/04/13 08:37:21;;;;;;;25.02;5.03;;;20.70;60.70;;;;;;5480929;26;20066;-62
2024/04/13 08:39:47;;;;;;;23.63;5.95;;;20.70;60.70;;;;;;5482244;26;20083;-62
2024/04/13 08:42:20;;;;;;;29.58;7.35;;;20.60;61.50;;;;;;5483908;26;20179;-62
2024/04/13 08:44:52;;;;;;;31.33;7.05;;;20.50;61.50;;;;;;5483068;26;20059;-61
2024/04/13 08:47:19;;;;;;;23.92;6.15;;;20.50;62.00;;;;;;5485154;26;20412;-63
2024/04/13 08:49:48;;;;;;;26.13;6.55;;;20.40;62.90;;;;;;5485804;26;20066;-62
2024/04/13 08:52:15;;;;;;;25.60;5.88;;;20.40;63.30;;;;;;5483512;26;20109;-61
2024/04/13 08:54:45;;;;;;;26.45;4.50;;;20.40;63.10;;;;;;5484144;26;20069;-61
2024/04/13 08:57:19;;;;;;;25.35;4.25;;;20.40;63.10;;;;;;5483175;26;20559;-62
2024/04/13 08:59:49;;;;;;;24.17;4.32;;;20.20;63.10;;;;;;5483506;26;20163;-62
2024/04/13 09:02:17;;;;;;;23.60;5.25;;;20.20;63.80;;;;;;5483826;26;20087;-62
2024/04/13 09:04:43;;;;;;;19.38;3.95;;;20.20;64.00;;;;;;5483538;26;20062;-62
2024/04/13 09:07:10;;;;;;;25.50;6.05;;;20.30;63.70;;;;;;5482579;26;20063;-62
2024/04/13 09:09:39;;;;;;;20.83;4.20;;;20.20;63.20;;;;;;5484657;26;20098;-63
2024/04/13 09:12:06;;;;;;;38.42;18.83;;;20.20;63.50;;;;;;5486150;26;20098;-62
2024/04/13 09:14:32;;;;;;;21.73;4.80;;;20.20;63.00;;;;;;5485648;26;20066;-63
2024/04/13 09:17:00;;;;;;;19.05;4.90;;;20.20;63.40;;;;;;5483339;26;20554;-64
2024/04/13 09:19:27;;;;;;;22.80;5.45;;;20.20;63.20;;;;;;5491076;26;20064;-63
2024/04/13 09:21:55;;;;;;;31.33;5.38;;;20.20;63.00;;;;;;5478731;26;20082;-63
2024/04/13 09:24:22;;;;;;;19.40;3.70;;;20.10;62.20;;;;;;5484017;26;20074;-63
2024/04/13 09:26:49;;;;;;;20.17;4.32;;;20.10;61.90;;;;;;5452805;26;21084;-61
2024/04/13 09:29:27;;;;;;;20.50;4.82;;;20.00;61.20;;;;;;5483440;26;20420;-62
2024/04/13 09:31:54;;;;;;;18.25;4.35;;;20.20;60.40;;;;;;5485875;26;20539;-63
2024/04/13 09:34:23;;;;;;;20.08;4.03;;;20.30;60.00;;;;;;5485762;26;20071;-63
2024/04/13 09:36:49;;;;;;;20.55;4.57;;;20.30;59.80;;;;;;5483200;26;20067;-63
2024/04/13 09:39:23;;;;;;;14.60;3.63;;;20.10;59.50;;;;;;5485194;26;20093;-62
2024/04/13 09:41:49;;;;;;;15.45;4.03;;;20.10;59.40;;;;;;5482874;26;20155;-62
2024/04/13 09:44:28;;;;;;;11.82;3.15;;;20.10;59.30;;;;;;5484412;26;20109;-62
2024/04/13 09:46:56;;;;;;;17.00;4.03;;;20.20;59.60;;;;;;5499829;26;20460;-62
2024/04/13 09:49:23;;;;;;;15.82;3.83;;;20.10;59.50;;;;;;5484391;26;20061;-62
2024/04/13 09:51:50;;;;;;;21.30;4.22;;;20.00;60.00;;;;;;5483016;26;20063;-62
2024/04/13 09:54:17;;;;;;;17.98;4.47;;;19.90;61.20;;;;;;5483964;26;20097;-62
2024/04/13 09:56:46;;;;;;;18.67;4.93;;;19.80;60.80;;;;;;5484579;26;20163;-62
2024/04/13 09:59:17;;;;;;;18.70;4.05;;;19.70;61.20;;;;;;5479468;26;20086;-62
2024/04/13 10:01:45;;;;;;;22.95;7.95;;;19.70;61.00;;;;;;5480980;26;20071;-63
2024/04/13 10:04:11;;;;;;;21.95;5.15;;;19.70;60.10;;;;;;5482288;26;20063;-62
2024/04/13 10:06:38;;;;;;;18.77;4.30;;;19.80;60.40;;;;;;5483420;26;20418;-63
2024/04/13 10:09:08;;;;;;;19.33;4.50;;;19.70;60.30;;;;;;5450772;26;20588;-62
2024/04/13 10:11:43;;;;;;;18.98;4.38;;;19.60;60.70;;;;;;5481674;26;20508;-62
2024/04/13 10:14:12;;;;;;;22.05;4.32;;;19.60;60.90;;;;;;5483179;26;20070;-62
2024/04/13 10:16:41;;;;;;;19.38;4.35;;;19.70;60.30;;;;;;5483248;26;21767;-62
2024/04/13 10:19:11;;;;;;;25.77;4.97;;;19.60;61.00;;;;;;5464106;26;20075;-61
2024/04/13 10:21:38;;;;;;;17.60;3.55;;;19.50;60.80;;;;;;5480773;26;20079;-61
2024/04/13 10:24:04;;;;;;;23.25;4.22;;;19.40;61.10;;;;;;5482413;26;20102;-63
2024/04/13 10:26:31;;;;;;;19.08;3.83;;;19.30;61.40;;;;;;5482324;26;20063;-61
2024/04/13 10:29:01;;;;;;;20.58;4.50;;;19.30;61.90;;;;;;5484447;26;20155;-62
2024/04/13 10:31:32;;;;;;;16.73;4.30;;;19.20;62.30;;;;;;5485640;26;20122;-62
2024/04/13 10:33:59;;;;;;;21.02;4.13;;;19.20;63.00;;;;;;5483431;26;20074;-62
2024/04/13 10:36:37;;;;;;;24.58;4.10;;;19.10;62.80;;;;;;5482758;26;20479;-61
2024/04/13 10:39:05;;;;;;;22.25;5.43;;;19.20;63.00;;;;;;5483534;26;20097;-62
2024/04/13 10:41:36;;;;;;;20.40;4.65;;;19.10;62.90;;;;;;5482794;26;20112;-64
2024/04/13 10:44:05;;;;;;;19.02;4.50;;;19.00;63.10;;;;;;5481974;26;20523;-63
2024/04/13 10:46:34;;;;;;;19.88;4.55;;;18.80;64.00;;;;;;5481430;26;20186;-61
2024/04/13 10:49:02;;;;;;;22.40;4.35;;;18.80;63.90;;;;;;5451522;26;20471;-61
2024/04/13 10:51:28;;;;;;;16.75;4.82;;;18.80;63.90;;;;;;5483291;26;20106;-64
2024/04/13 10:53:55;;;;;;;22.00;5.28;;;18.80;63.90;;;;;;5450044;26;20079;-62
2024/04/13 10:56:21;;;;;;;29.45;6.63;;;18.70;64.90;;;;;;5482980;26;20062;-62
2024/04/13 10:58:50;;;;;;;21.27;5.95;;;18.60;65.00;;;;;;5482545;26;20090;-62
2024/04/13 11:01:16;;;;;;;18.55;4.88;;;18.60;65.00;;;;;;5482254;26;20063;-62
2024/04/13 11:03:43;;;;;;;24.33;5.25;;;18.60;65.20;;;;;;5480442;26;20062;-62
2024/04/13 11:06:10;;;;;;;25.88;7.60;;;18.60;65.70;;;;;;5483193;26;20075;-62
2024/04/13 11:08:36;;;;;;;23.92;6.72;;;18.50;65.50;;;;;;5480299;26;20074;-62
2024/04/13 11:11:03;;;;;;;24.70;6.93;;;18.30;65.50;;;;;;5483535;26;20093;-62
2024/04/13 11:13:30;;;;;;;26.35;6.78;;;18.40;66.40;;;;;;5482273;26;20074;-61
2024/04/13 11:15:57;;;;;;;22.13;5.03;;;18.40;66.20;;;;;;5449521;26;20487;-62
2024/04/13 11:18:24;;;;;;;20.92;5.50;;;18.40;66.50;;;;;;5480828;26;20478;-61
2024/04/13 11:21:01;;;;;;;19.60;4.47;;;18.40;66.30;;;;;;5478573;26;20089;-62
2024/04/13 11:23:27;;;;;;;;;;;18.40;66.70;;;;;;5492536;26;20070;-62
2024/04/13 11:25:54;;;;;;;17.92;4.05;;;18.20;67.00;;;;;;5481052;26;19996;-62
2024/04/13 11:28:21;;;;;;;19.13;5.20;;;18.20;67.40;;;;;;5476162;26;20059;-62
2024/04/13 11:30:47;;;;;;;17.98;4.30;;;18.10;68.10;;;;;;5494169;26;20058;-62
2024/04/13 11:33:15;;;;;;;18.83;4.40;;;18.10;68.00;;;;;;5449733;26;20110;-61
2024/04/13 11:35:55;;;;;;;14.50;4.40;;;18.10;68.10;;;;;;5481901;26;20058;-63
2024/04/13 11:38:21;;;;;;;21.23;4.53;;;18.20;68.10;;;;;;5480205;26;20120;-62
2024/04/13 11:40:50;;;;;;;32.63;5.20;;;18.20;68.20;;;;;;5480681;26;20094;-62
2024/04/13 11:43:17;;;;;;;16.33;4.53;;;18.10;68.10;;;;;;5479368;26;20136;-62
2024/04/13 11:45:44;;;;;;;22.08;3.97;;;18.10;68.80;;;;;;5482121;26;20067;-63
2024/04/13 11:48:11;;;;;;;14.45;3.70;;;18.00;68.40;;;;;;5480690;26;20070;-62
2024/04/13 11:50:38;;;;;;;14.07;3.67;;;17.90;68.30;;;;;;5480756;26;20085;-62
2024/04/13 11:53:04;;;;;;;16.65;3.83;;;17.70;69.00;;;;;;5480575;26;20082;-64
2024/04/13 11:55:34;;;;;;;22.05;4.00;;;17.80;69.50;;;;;;5481100;26;20059;-62
2024/04/13 11:58:00;;;;;;;17.90;4.10;;;17.80;69.30;;;;;;5448833;26;20149;-62
2024/04/13 12:00:27;;;;;;;18.38;3.80;;;17.90;69.30;;;;;;5450160;26;20075;-62
2024/04/13 12:02:55;;;;;;;14.02;3.65;;;17.90;69.30;;;;;;5490371;26;20074;-62
2024/04/13 12:05:21;;;;;;;16.58;3.85;;;17.80;70.00;;;;;;5480477;26;20555;-62
2024/04/13 12:07:48;;;;;;;19.23;4.18;;;17.80;70.30;;;;;;5482170;26;20110;-61
2024/04/13 12:10:14;;;;;;;16.50;3.58;;;17.80;70.10;;;;;;5497361;26;20072;-61
2024/04/13 12:12:41;;;;;;;16.77;3.63;;;17.70;70.50;;;;;;5498112;26;20990;-61
2024/04/13 12:15:07;;;;;;;22.88;4.25;;;17.60;70.70;;;;;;5502914;26;21963;-62
2024/04/13 12:17:34;;;;;;;14.90;3.55;;;17.70;71.10;;;;;;5481105;26;20078;-61
2024/04/13 12:20:01;;;;;;;16.77;3.75;;;17.50;71.10;;;;;;5480771;26;20066;-61
2024/04/13 12:22:28;;;;;;;17.90;3.70;;;17.40;72.20;;;;;;5446771;26;20066;-61
2024/04/13 12:24:54;;;;;;;21.05;5.20;;;17.40;72.50;;;;;;5488231;26;20066;-63
2024/04/13 12:27:21;;;;;;;21.33;6.40;;;17.50;72.30;;;;;;5483515;26;20097;-61
2024/04/13 12:29:47;;;;;;;30.73;7.47;;;17.40;72.60;;;;;;5480976;26;20098;-61
2024/04/13 12:32:14;;;;;;;27.00;6.70;;;17.20;73.10;;;;;;5486961;26;20089;-61
2024/04/13 12:34:40;;;;;;;21.17;5.63;;;17.20;73.60;;;;;;5449105;26;20512;-61
2024/04/13 12:37:08;;;;;;;28.65;5.63;;;17.20;73.50;;;;;;5479715;26;20089;-61
2024/04/13 12:39:34;;;;;;;35.03;6.15;;;17.10;74.10;;;;;;5480898;26;20067;-60